Station info - map view · info · telemetry · weather · raw · status · beacons · messages · bulletins · browse · moving · my account
Callsign, ship name or locator: Clear       
It is possible to search using wildcards (*?) after a prefix. Example: OH*
APRS station IZ3LBC-9 - show graphs
Map loading...
Comment: TH D72 GABRY_ARI-RE VERONA_EST 145.500
Mic-E message: In service
Location: 45°28.45' N 10°51.24' E - locator JN55KL23LT - show map - static map
0.4 miles Northeast bearing 26° from Bussolengo, Provincia di Verona, Veneto, Italy [?]
2.9 miles Southeast bearing 116° from Pastrengo, Provincia di Verona, Veneto, Italy
71.4 miles West bearing 272° from Venice, Provincia di Venezia, Veneto, Italy
71.7 miles North bearing 341° from Bologna, Provincia di Bologna, Emilia-Romagna, Italy
Last position: 2020-05-26 09:18:31 EDT (4h49m ago)
2020-05-26 15:18:31 CEST local time at Bussolengo, Italy [?]
Altitude: 430 ft
Course: 121°
Speed: 1 MPH
Device: Kenwood: TH-D72 (ht)
Last path: IZ3LBC-9>T5RX45 via WIDE1-1,WIDE2-2,qAR,IQ3VO (good)
Positions stored: 639485
Packet rate: 32 seconds between packets on average during 1558 seconds.
Other SSIDs: IZ3LBC IZ3LBC-5 IZ3LBC-7 IZ3LBC-ND
Stations near current position of IZ3LBC-9 - show more
callsign distance last heard - EDT      callsign distance last heard - EDT
IQ3ZF1.1 miles 58°2020-05-26 14:06:42 IZ3LBC-ND1.2 miles 73°2020-05-26 14:02:30
IK3MZS-51.5 miles 37°2020-05-17 16:28:51 DF5KC-93.7 miles 56°2020-05-25 14:40:38
DF5KC-i3.7 miles 56°2020-05-09 15:29:52 IU3EGM-H14.6 miles 127°2020-05-26 12:32:33
I3NWN5.5 miles 241°2020-05-09 10:48:09 IZ3LBC5.5 miles 98°2020-05-08 07:47:25
IU3IPY-95.6 miles 101°2020-05-02 09:07:11 I3APR-H05.7 miles 117°2020-05-16 11:00:13
IZ8WNH5.7 miles 107°2020-05-23 05:07:23 IZ8WNH-15.7 miles 107°2020-05-23 05:11:46
IW3HTY-H05.7 miles 103°2020-05-26 09:02:39 IZ3ZOL-96.2 miles 104°2020-05-23 03:51:57
II3FYT6.3 miles 114°2020-05-26 14:04:42 IZ3SLY-16.4 miles 157°2020-05-09 13:50:54
IK3ORE-106.5 miles 128°2020-05-26 14:04:32 IW3GCR6.5 miles 125°2020-05-02 08:06:10
IZ3KVH6.5 miles 90°2020-05-26 13:56:06 IW3GGO-57.0 miles 126°2020-05-24 15:19:20
Stations which heard IZ3LBC-9 directly on radio –
callsign pkts first heard - EDT last heard longest (tx => rx) longest at - EDT
IR3BT 5 2020-05-09 06:02:33 2020-05-09 10:57:26 JN55JP > JN56MD 35.2 miles 21° 2020-05-09 10:57:26
IK3XTM 217 2020-05-04 11:14:53 2020-05-26 09:17:52 JN55KI > JN55LP 20.4 miles 15° 2020-05-04 11:26:02
IQ3VQ 490 2020-05-01 10:25:58 2020-05-26 09:18:33 JN55KI > JN55MK 13.4 miles 59° 2020-05-04 11:26:12
IR2BT 9 2020-05-09 03:15:04 2020-05-09 11:14:09 JN55JQ > JN55FO 16.6 miles 254° 2020-05-09 06:07:40
IZ4UFQ-10 3 2020-05-09 03:06:49 2020-05-09 03:08:59 JN55JO > JN54QL 83.1 miles 160° 2020-05-09 03:08:59
IR2Y 24 2020-05-09 03:15:33 2020-05-09 11:15:52 JN55JQ > JN55EK 27.0 miles 227° 2020-05-09 06:06:51
IR4BA 4 2020-05-09 11:06:49 2020-05-09 11:09:00 JN55JO > JN54NF 98.0 miles 171° 2020-05-09 11:06:49
IR2S 8 2020-05-04 11:02:15 2020-05-25 09:57:22 JN55LK > JN55DQ 37.4 miles 293° 2020-05-21 10:19:15
IR2CV 6 2020-05-02 03:18:10 2020-05-22 11:20:48 JN55JP > JN55JC 37.2 miles 179° 2020-05-09 03:11:32
IK2CHZ-12 4 2020-05-09 03:19:39 2020-05-09 11:00:22 JN55JQ > JN45UI 57.5 miles 248° 2020-05-09 06:03:50
IW5CBL-15 4 2020-05-09 03:06:45 2020-05-09 11:09:49 JN55JO > JN44WL 90.8 miles 210° 2020-05-09 11:07:44
IZ3VIV-15 11 2020-05-02 03:08:41 2020-05-26 07:29:44 JN55JL > JN55PJ 23.2 miles 104° 2020-05-22 03:16:55
IQ4SC 9 2020-05-09 03:05:37 2020-05-09 11:09:48 JN55JO > JN54IO 70.9 miles 183° 2020-05-09 11:05:55
IZ4AQM 1 2020-05-09 03:06:55 2020-05-09 03:06:55 JN55JO > JN54TD 110.4 miles 157° 2020-05-09 03:06:55
IQ3VO 841 2020-05-01 10:22:16 2020-05-26 09:18:31 JN55KI > JN55MQ 26.3 miles 24° 2020-05-04 11:25:51
IK3XTM-9 51 2020-05-01 10:24:35 2020-05-24 12:31:56 JN55KL > JN55MQ 18.5 miles 31° 2020-05-24 05:10:51
IR2BP 184 2020-05-01 10:22:45 2020-05-26 09:16:47 JN55LK > JN55DN 34.5 miles 282° 2020-05-26 07:38:44
IQ3ZF 1186 2020-05-01 10:18:14 2020-05-26 09:17:51 JN55JP > JN55KL 11.8 miles 151° 2020-05-09 11:03:05
IR2DD 336 2020-05-01 10:19:44 2020-05-26 09:14:54 JN55LK > JN55GL 21.7 miles 274° 2020-05-08 07:38:57
IR3UDY 18 2020-05-04 11:00:20 2020-05-26 08:13:32 JN55KI > JN55LS 29.3 miles 8° 2020-05-04 11:28:01

Only position packets which were originated by the station are shown here. The range statistics show some extra long hops, because some digipeaters do not correctly add themselves to the digipeater path. Please check the raw packets.
About this site
This page shows real-time information collected from the Automatic Position Reporting System Internet network (APRS-IS). APRS is used by amateur (ham) radio operators to transmit real-time position information, weather data, telemetry and messages over the radio. A vehicle equipped with a GPS receiver, a VHF transmitter or HF transceiver and a small computer device called a tracker transmits it's location, speed and course in a small data packet, which is then received by a nearby iGate receiving site which forwards the packet on the Internet. Systems connected to the Internet can send information on the APRS-IS without a radio transmitter, or collect and display information transmitted anywhere in the world.
User guide · FAQ · Blog · Discussion group · Linking to aprs.fi · AIS sites · Service status · Database statistics · Advertising on aprs.fi · Technical details · API · Change log · Planned changes · Credits and thanks · Terms Of Service · iPhone/iPad APRS